Time;durP1;ratioP1;P1;durP2;ratioP2;P2;SDS_P1;SDS_P2;PMS_P1;PMS_P2;Temp;Humidity;BMP_temperature;BMP_pressure;BME280_temperature;BME280_humidity;BME280_pressure;Samples;Min_cycle;Max_cycle;Signal;HPM_P1;HPM_P2
2024/01/03 00:00:28;;;;;;;6.55;1.23;;;8.20;99.90;;;;;;5087391;28;20063;-94
2024/01/03 00:02:58;;;;;;;13.05;1.50;;;8.20;99.90;;;;;;5086807;28;20535;-86
2024/01/03 00:05:35;;;;;;;15.07;1.90;;;8.80;99.90;;;;;;5065935;28;20059;-88
2024/01/03 00:08:01;;;;;;;13.48;1.73;;;8.50;99.90;;;;;;5083206;28;20036;-93
2024/01/03 00:10:41;;;;;;;12.10;1.55;;;8.30;99.90;;;;;;5086523;28;20625;-88
2024/01/03 00:13:29;;;;;;;10.63;2.17;;;8.20;99.90;;;;;;5081758;28;20543;-85
2024/01/03 00:16:07;;;;;;;12.60;1.27;;;8.30;99.90;;;;;;5079956;28;20063;-87
2024/01/03 00:18:38;;;;;;;9.48;1.50;;;8.60;99.90;;;;;;5076415;28;20048;-87
2024/01/03 00:21:05;;;;;;;12.05;1.25;;;9.20;99.90;;;;;;5084735;28;20044;-92
2024/01/03 00:23:43;;;;;;;14.88;2.08;;;8.20;99.90;;;;;;5085772;28;20055;-90
2024/01/03 00:26:10;;;;;;;6.28;1.40;;;9.30;99.90;;;;;;5079757;28;20051;-85
2024/01/03 00:28:36;;;;;;;13.88;1.75;;;9.30;99.90;;;;;;5084919;28;20039;-84
2024/01/03 00:31:02;;;;;;;9.98;1.85;;;9.10;99.90;;;;;;5082197;28;20579;-85
2024/01/03 00:33:28;;;;;;;10.43;1.50;;;8.20;99.90;;;;;;5083602;28;20072;-87
2024/01/03 00:35:55;;;;;;;5.43;1.58;;;8.20;99.90;;;;;;5084795;28;20036;-87
2024/01/03 00:38:27;;;;;;;10.93;1.52;;;9.10;99.90;;;;;;5084949;28;20582;-87
2024/01/03 00:40:57;;;;;;;13.48;2.10;;;9.10;99.90;;;;;;5083539;28;20097;-87
2024/01/03 00:43:29;;;;;;;8.68;1.25;;;8.10;99.90;;;;;;5081663;28;20071;-86
2024/01/03 00:45:57;;;;;;;8.15;1.48;;;8.00;99.90;;;;;;5081518;28;20052;-88
2024/01/03 00:48:23;;;;;;;8.93;1.20;;;9.20;99.90;;;;;;5075130;28;20119;-88
2024/01/03 00:50:49;;;;;;;10.05;2.05;;;9.00;99.90;;;;;;5072489;28;20083;-87
2024/01/03 00:53:16;;;;;;;16.10;2.78;;;8.10;99.90;;;;;;5080531;28;20391;-87
2024/01/03 00:55:51;;;;;;;11.82;1.85;;;8.10;99.90;;;;;;5082092;28;20124;-88
2024/01/03 00:58:18;;;;;;;8.20;1.38;;;8.50;99.90;;;;;;5083719;28;20044;-86
2024/01/03 01:00:43;;;;;;;8.07;1.20;;;8.70;99.90;;;;;;5067039;28;20043;-85
2024/01/03 01:03:09;;;;;;;15.80;1.77;;;9.10;99.90;;;;;;5076764;28;20602;-87
2024/01/03 01:05:35;;;;;;;9.60;1.77;;;8.10;99.90;;;;;;5080230;28;20079;-91
2024/01/03 01:08:01;;;;;;;17.20;3.25;;;9.20;99.90;;;;;;5081762;28;20044;-90
2024/01/03 01:10:26;;;;;;;12.93;1.73;;;8.80;99.90;;;;;;5082926;28;20059;-86
2024/01/03 01:12:56;;;;;;;15.88;3.13;;;7.70;99.90;;;;;;5084016;28;20052;-89
2024/01/03 01:15:22;;;;;;;9.02;1.67;;;8.10;99.90;;;;;;5075752;28;20088;-86
2024/01/03 01:17:49;;;;;;;11.60;1.77;;;9.20;99.90;;;;;;5066827;28;20044;-86
2024/01/03 01:20:17;;;;;;;14.70;1.65;;;8.10;99.90;;;;;;5084765;28;20458;-89
2024/01/03 01:22:46;;;;;;;9.13;1.40;;;8.80;99.90;;;;;;5083323;28;20502;-90
2024/01/03 01:25:15;;;;;;;7.68;1.40;;;8.20;99.90;;;;;;5079591;28;20106;-86
2024/01/03 01:27:47;;;;;;;16.30;1.77;;;8.10;99.90;;;;;;5083372;28;20064;-89
2024/01/03 01:30:13;;;;;;;21.00;1.70;;;8.10;99.90;;;;;;5086468;28;20067;-87
2024/01/03 01:32:39;;;;;;;13.55;1.75;;;8.10;99.90;;;;;;5081263;28;20067;-90
2024/01/03 01:35:10;;;;;;;15.75;1.70;;;9.10;99.90;;;;;;5065847;28;20047;-89
2024/01/03 01:37:36;;;;;;;9.90;1.77;;;8.00;99.90;;;;;;5081377;28;20132;-87
2024/01/03 01:40:04;;;;;;;15.27;1.90;;;9.20;99.90;;;;;;5084177;28;20044;-87
2024/01/03 01:42:33;;;;;;;15.65;1.85;;;8.10;99.90;;;;;;5085155;28;20097;-87
2024/01/03 01:44:59;;;;;;;14.50;1.98;;;8.60;99.90;;;;;;5081846;28;20422;-89
2024/01/03 01:47:26;;;;;;;12.25;2.05;;;9.30;99.90;;;;;;5081163;28;20033;-88
2024/01/03 01:49:52;;;;;;;19.50;1.60;;;8.50;99.90;;;;;;5087527;28;20113;-85
2024/01/03 01:52:27;;;;;;;10.80;1.27;;;9.20;99.90;;;;;;5085250;28;20091;-85
2024/01/03 01:54:55;;;;;;;13.20;2.42;;;8.20;99.90;;;;;;5085489;28;20055;-87
2024/01/03 01:57:21;;;;;;;9.30;1.33;;;8.80;99.90;;;;;;5086096;28;20086;-87
2024/01/03 01:59:48;;;;;;;13.15;1.65;;;9.40;99.90;;;;;;5086249;28;20043;-88
2024/01/03 02:02:17;;;;;;;19.23;1.80;;;9.00;99.90;;;;;;5086070;28;20036;-87
2024/01/03 02:04:43;;;;;;;12.20;1.90;;;8.20;99.90;;;;;;5065876;28;20462;-89
2024/01/03 02:07:09;;;;;;;12.20;1.90;;;8.90;99.90;;;;;;5068487;28;20044;-86
2024/01/03 02:09:35;;;;;;;12.38;1.73;;;8.50;99.90;;;;;;5086522;28;20439;-88
2024/01/03 02:12:00;;;;;;;9.75;1.17;;;9.10;99.90;;;;;;5065091;28;20048;-88
2024/01/03 02:14:26;;;;;;;14.52;2.00;;;9.10;99.90;;;;;;5084174;28;20101;-89
2024/01/03 02:16:54;;;;;;;8.07;1.20;;;9.00;99.90;;;;;;5087254;28;20047;-86
2024/01/03 02:19:20;;;;;;;10.07;1.33;;;9.30;99.90;;;;;;5069047;28;20040;-87
2024/01/03 02:21:46;;;;;;;10.32;1.50;;;8.20;99.90;;;;;;5084355;28;20032;-86
2024/01/03 02:24:18;;;;;;;15.45;1.33;;;8.30;99.90;;;;;;5083623;28;20564;-88
2024/01/03 02:26:43;;;;;;;8.23;1.45;;;8.70;99.90;;;;;;5070239;28;20052;-87
2024/01/03 02:29:09;;;;;;;4.13;1.08;;;9.10;99.90;;;;;;5080855;28;20194;-96
2024/01/03 02:31:38;;;;;;;14.15;2.22;;;8.40;99.90;;;;;;5087108;28;20044;-88
2024/01/03 02:34:03;;;;;;;10.27;1.60;;;9.00;99.90;;;;;;5087424;28;20036;-86
2024/01/03 02:36:29;;;;;;;7.35;1.20;;;9.20;99.90;;;;;;5079494;28;20109;-86
2024/01/03 02:38:56;;;;;;;10.93;1.20;;;9.50;99.90;;;;;;5088015;28;20041;-86
2024/01/03 02:41:22;;;;;;;10.38;1.48;;;9.60;99.90;;;;;;5084040;28;20043;-89
2024/01/03 02:43:47;;;;;;;7.05;1.52;;;8.40;99.90;;;;;;5081338;28;20051;-86
2024/01/03 02:46:18;;;;;;;16.92;1.42;;;8.50;99.90;;;;;;5080868;28;20121;-84
2024/01/03 02:48:43;;;;;;;10.85;1.73;;;9.30;99.90;;;;;;5079850;28;20541;-85
2024/01/03 02:51:18;;;;;;;15.10;2.20;;;8.50;99.90;;;;;;5081316;28;20039;-86
2024/01/03 02:53:45;;;;;;;9.98;3.05;;;9.60;99.90;;;;;;5079193;28;20048;-86
2024/01/03 02:56:10;;;;;;;14.38;1.92;;;8.50;99.90;;;;;;5083292;28;20066;-85
2024/01/03 02:58:39;;;;;;;11.85;1.85;;;9.40;99.90;;;;;;5066404;28;20056;-85
2024/01/03 03:01:10;;;;;;;10.15;1.63;;;8.50;99.90;;;;;;5081834;28;20055;-85
2024/01/03 03:03:36;;;;;;;7.90;1.40;;;8.50;99.90;;;;;;5081630;28;20044;-85
2024/01/03 03:06:03;;;;;;;10.18;1.85;;;9.70;99.90;;;;;;5082882;28;20121;-87
2024/01/03 03:08:29;;;;;;;9.88;1.90;;;8.50;99.90;;;;;;5084132;28;20051;-86
2024/01/03 03:10:54;;;;;;;10.32;1.55;;;9.30;99.90;;;;;;5084174;28;20036;-85
2024/01/03 03:13:20;;;;;;;14.23;1.90;;;8.60;99.90;;;;;;5084403;28;20059;-85
2024/01/03 03:15:46;;;;;;;10.40;1.50;;;9.80;99.90;;;;;;5084817;28;20423;-86
2024/01/03 03:18:13;;;;;;;11.98;1.65;;;9.40;99.90;;;;;;5066444;28;20136;-86
2024/01/03 03:20:39;;;;;;;8.65;1.88;;;9.70;99.90;;;;;;5079012;28;20076;-87
2024/01/03 03:23:05;;;;;;;12.02;2.05;;;8.70;99.90;;;;;;5086535;28;20078;-91
2024/01/03 03:25:30;;;;;;;9.70;1.73;;;9.70;99.90;;;;;;5086404;28;20600;-86
2024/01/03 03:27:56;;;;;;;11.82;1.48;;;9.50;99.90;;;;;;5082761;28;20440;-94
2024/01/03 03:30:22;;;;;;;13.32;2.03;;;9.40;99.90;;;;;;5083610;28;20769;-87
2024/01/03 03:32:48;;;;;;;9.85;1.27;;;8.90;99.90;;;;;;5083755;28;20105;-84
2024/01/03 03:35:17;;;;;;;14.00;1.58;;;8.60;99.90;;;;;;5085162;28;20068;-89
2024/01/03 03:37:42;;;;;;;9.35;1.42;;;9.00;99.90;;;;;;5086125;28;20087;-87
2024/01/03 03:40:08;;;;;;;11.82;2.15;;;9.30;99.90;;;;;;5088945;28;20040;-86
2024/01/03 03:42:34;;;;;;;14.75;1.48;;;8.50;99.90;;;;;;5088291;28;20038;-87
2024/01/03 03:45:00;;;;;;;11.50;1.45;;;9.70;99.90;;;;;;5082876;28;20041;-86
2024/01/03 03:47:26;;;;;;;12.60;1.60;;;9.40;99.90;;;;;;5065487;28;20054;-91
2024/01/03 03:49:52;;;;;;;12.20;1.70;;;8.50;99.90;;;;;;5084800;28;20515;-84
2024/01/03 03:52:17;;;;;;;12.45;1.83;;;8.60;99.90;;;;;;5085526;28;20507;-86
2024/01/03 03:54:43;;;;;;;9.50;1.60;;;9.70;99.90;;;;;;5083736;28;20044;-86
2024/01/03 03:57:09;;;;;;;8.25;2.15;;;9.00;99.90;;;;;;5087472;28;20097;-86
2024/01/03 03:59:34;;;;;;;14.00;1.30;;;9.20;99.90;;;;;;5088844;28;20472;-88
2024/01/03 04:02:03;;;;;;;8.10;1.60;;;9.50;99.90;;;;;;5083651;28;20054;-87
2024/01/03 04:04:28;;;;;;;10.98;1.90;;;9.10;99.90;;;;;;5081439;28;20098;-85
2024/01/03 04:06:55;;;;;;;10.15;1.40;;;8.50;99.90;;;;;;5083612;28;20457;-86
2024/01/03 04:09:21;;;;;;;9.07;1.65;;;9.40;99.90;;;;;;5085716;28;20058;-87
2024/01/03 04:11:46;;;;;;;8.95;1.40;;;8.60;99.90;;;;;;5079445;28;20127;-86
2024/01/03 04:14:13;;;;;;;5.68;1.35;;;9.70;99.90;;;;;;5087161;28;20051;-87
2024/01/03 04:16:38;;;;;;;6.32;1.65;;;8.80;99.90;;;;;;5079842;28;20045;-84
2024/01/03 04:19:04;;;;;;;10.10;1.73;;;9.60;99.90;;;;;;5083211;28;20476;-85
2024/01/03 04:21:31;;;;;;;12.23;1.88;;;9.50;99.90;;;;;;5083301;28;20055;-86
2024/01/03 04:23:57;;;;;;;7.18;1.40;;;9.60;99.90;;;;;;5076862;28;20040;-87
2024/01/03 04:26:23;;;;;;;10.38;1.70;;;8.60;99.90;;;;;;5078441;28;20087;-85
2024/01/03 04:28:49;;;;;;;25.33;1.77;;;9.20;99.90;;;;;;5087836;28;20380;-85
2024/01/03 04:31:17;;;;;;;8.82;1.58;;;9.70;99.90;;;;;;5083382;28;20074;-92
2024/01/03 04:33:42;;;;;;;10.73;1.83;;;8.50;99.90;;;;;;5083234;28;20061;-84
2024/01/03 04:36:11;;;;;;;5.78;1.20;;;9.50;99.90;;;;;;5077318;28;20131;-85
2024/01/03 04:38:36;;;;;;;6.38;1.67;;;9.40;99.90;;;;;;5077908;28;20055;-92
2024/01/03 04:41:02;;;;;;;12.95;1.58;;;9.40;99.90;;;;;;5084731;28;20047;-85
2024/01/03 04:43:29;;;;;;;6.82;1.40;;;8.50;99.90;;;;;;5066732;28;20052;-90
2024/01/03 04:45:54;;;;;;;8.55;1.40;;;9.70;99.90;;;;;;5086804;28;20055;-87
2024/01/03 04:48:20;;;;;;;4.15;1.10;;;9.70;99.90;;;;;;5086893;28;20498;-92
2024/01/03 04:50:46;;;;;;;12.27;1.48;;;9.60;99.90;;;;;;5080036;28;20032;-85
2024/01/03 04:53:12;;;;;;;5.75;1.30;;;9.60;99.90;;;;;;5081410;28;20101;-87
2024/01/03 04:55:38;;;;;;;10.55;1.30;;;9.60;99.90;;;;;;5084633;28;20129;-85
2024/01/03 04:58:03;;;;;;;12.13;1.60;;;9.60;99.90;;;;;;5086472;28;20067;-86
2024/01/03 05:00:30;;;;;;;11.40;2.17;;;9.10;99.90;;;;;;5090857;28;20036;-91
2024/01/03 05:02:56;;;;;;;14.77;1.85;;;9.20;99.90;;;;;;5087238;28;20080;-87
2024/01/03 05:05:22;;;;;;;11.90;1.70;;;9.60;99.90;;;;;;5063490;28;20055;-91
2024/01/03 05:07:47;;;;;;;14.27;1.88;;;9.40;99.90;;;;;;5087013;28;20052;-87
2024/01/03 05:10:13;;;;;;;12.38;1.83;;;9.50;99.90;;;;;;5085851;28;20067;-84
2024/01/03 05:12:39;;;;;;;12.18;1.80;;;8.30;99.90;;;;;;5079772;28;20040;-86
2024/01/03 05:15:05;;;;;;;7.72;1.15;;;9.10;99.90;;;;;;5059471;28;20040;-91
2024/01/03 05:17:31;;;;;;;6.53;1.73;;;8.30;99.90;;;;;;5083507;28;20050;-89
2024/01/03 05:19:57;;;;;;;13.10;1.70;;;9.10;99.90;;;;;;5083997;28;20119;-93
2024/01/03 05:22:26;;;;;;;12.57;1.13;;;9.20;99.90;;;;;;5066870;28;20522;-87
2024/01/03 05:24:53;;;;;;;6.93;1.30;;;9.40;99.90;;;;;;5082139;28;20105;-90
2024/01/03 05:27:20;;;;;;;4.68;0.93;;;9.30;99.90;;;;;;5075579;28;20535;-85
2024/01/03 05:29:49;;;;;;;5.63;1.30;;;9.10;99.90;;;;;;5068683;28;20479;-86
2024/01/03 05:32:15;;;;;;;5.53;1.13;;;8.00;99.90;;;;;;5085443;28;20086;-88
2024/01/03 05:34:41;;;;;;;10.18;1.38;;;9.20;99.90;;;;;;5078048;28;20044;-86
2024/01/03 05:37:07;;;;;;;12.65;1.65;;;9.20;99.90;;;;;;5084748;28;20066;-86
2024/01/03 05:39:32;;;;;;;10.00;1.88;;;9.00;99.90;;;;;;5067577;28;20052;-88
2024/01/03 05:41:58;;;;;;;25.77;3.45;;;9.20;99.90;;;;;;5084931;28;20045;-88
2024/01/03 05:44:23;;;;;;;22.88;2.70;;;9.20;99.90;;;;;;5083878;28;20036;-87
2024/01/03 05:46:49;;;;;;;18.73;2.88;;;8.30;99.90;;;;;;5086975;28;20403;-88
2024/01/03 05:49:15;;;;;;;18.10;2.75;;;9.00;99.90;;;;;;5088685;28;20048;-88
2024/01/03 05:51:41;;;;;;;17.05;3.17;;;9.50;99.90;;;;;;5064807;28;20041;-85
2024/01/03 05:54:06;;;;;;;27.33;3.58;;;9.50;99.90;;;;;;5082337;28;20040;-87
2024/01/03 05:56:33;;;;;;;19.58;2.75;;;9.70;99.90;;;;;;5086848;28;20044;-87
2024/01/03 05:59:02;;;;;;;20.02;2.35;;;8.60;99.90;;;;;;5085663;28;20055;-88
2024/01/03 06:01:28;;;;;;;25.23;3.75;;;9.20;99.90;;;;;;5085382;28;20033;-83
2024/01/03 06:03:53;;;;;;;27.95;2.42;;;8.60;99.90;;;;;;5085204;28;20048;-87
2024/01/03 06:06:19;;;;;;;18.27;2.85;;;9.60;99.90;;;;;;5084927;28;20060;-85
2024/01/03 06:08:45;;;;;;;15.73;2.20;;;9.60;99.90;;;;;;5089826;28;20047;-86
2024/01/03 06:11:12;;;;;;;18.42;2.85;;;9.70;99.90;;;;;;5087039;28;20062;-87
2024/01/03 06:13:38;;;;;;;18.35;2.88;;;9.00;99.90;;;;;;5076779;28;20056;-87
2024/01/03 06:16:05;;;;;;;14.68;2.45;;;8.60;99.90;;;;;;5086329;28;20047;-85
2024/01/03 06:18:30;;;;;;;26.75;4.18;;;8.60;99.90;;;;;;5059638;28;20059;-84
2024/01/03 06:20:56;;;;;;;17.02;2.40;;;8.60;99.90;;;;;;5085155;28;20384;-85
2024/01/03 06:23:24;;;;;;;20.52;2.67;;;9.60;99.90;;;;;;5065191;28;20046;-89
2024/01/03 06:25:50;;;;;;;22.63;3.00;;;8.60;99.90;;;;;;5082058;28;20083;-89
2024/01/03 06:28:16;;;;;;;19.27;2.80;;;9.60;99.90;;;;;;5083645;28;20055;-86
2024/01/03 06:30:43;;;;;;;19.77;2.92;;;9.70;99.90;;;;;;5089871;28;20043;-86
2024/01/03 06:33:09;;;;;;;20.90;3.03;;;8.70;99.90;;;;;;5086931;28;20094;-87
2024/01/03 06:35:35;;;;;;;23.35;3.25;;;8.80;99.90;;;;;;5086039;28;20044;-86
2024/01/03 06:38:03;;;;;;;15.68;3.30;;;9.50;99.90;;;;;;5087271;28;20095;-86
2024/01/03 06:40:30;;;;;;;15.75;2.25;;;9.60;99.90;;;;;;5085753;28;20041;-85
2024/01/03 06:42:58;;;;;;;26.92;3.10;;;9.70;99.90;;;;;;5089372;28;20095;-87
2024/01/03 06:45:24;;;;;;;24.45;3.70;;;9.40;99.90;;;;;;5071770;28;20082;-84
2024/01/03 06:47:50;;;;;;;21.48;3.25;;;8.70;99.90;;;;;;5086821;28;20047;-87
2024/01/03 06:50:16;;;;;;;19.45;2.95;;;9.20;99.90;;;;;;5084916;28;20060;-85
2024/01/03 06:52:42;;;;;;;21.30;3.53;;;9.50;99.90;;;;;;5074121;28;20138;-85
2024/01/03 06:55:08;;;;;;;19.45;2.55;;;9.60;99.90;;;;;;5085978;28;20141;-84
2024/01/03 06:57:33;;;;;;;31.02;3.95;;;8.70;99.90;;;;;;5071165;28;20482;-85
2024/01/03 06:59:59;;;;;;;18.63;2.65;;;9.10;99.90;;;;;;5086351;28;20052;-87
2024/01/03 07:02:25;;;;;;;20.05;2.95;;;9.00;99.90;;;;;;5083806;28;20045;-91
2024/01/03 07:04:51;;;;;;;24.42;3.08;;;8.60;99.90;;;;;;5083713;28;20056;-86
2024/01/03 07:07:17;;;;;;;19.65;2.78;;;8.70;99.90;;;;;;5083497;28;20113;-86
2024/01/03 07:09:43;;;;;;;19.77;3.25;;;9.10;99.90;;;;;;5084805;28;20076;-86
2024/01/03 07:12:09;;;;;;;17.15;2.67;;;8.60;99.90;;;;;;5086447;28;20045;-83
2024/01/03 07:14:35;;;;;;;19.15;2.63;;;9.80;99.90;;;;;;5086679;28;20040;-86
2024/01/03 07:17:00;;;;;;;19.40;2.42;;;9.40;99.90;;;;;;5086033;28;20066;-87
2024/01/03 07:19:26;;;;;;;27.27;3.42;;;9.50;99.90;;;;;;5088672;28;20066;-87
2024/01/03 07:21:52;;;;;;;21.60;2.88;;;9.60;99.90;;;;;;5085874;28;20073;-86
2024/01/03 07:24:17;;;;;;;25.85;2.67;;;9.00;99.90;;;;;;5085536;28;20486;-85
2024/01/03 07:26:43;;;;;;;14.43;1.75;;;9.20;99.90;;;;;;5082343;28;20528;-83
2024/01/03 07:29:08;;;;;;;22.60;3.42;;;9.00;99.90;;;;;;5084824;28;20445;-85
2024/01/03 07:31:35;;;;;;;23.67;3.13;;;9.80;99.90;;;;;;5081926;28;20513;-85
2024/01/03 07:34:01;;;;;;;16.23;3.22;;;9.90;99.90;;;;;;5082015;28;20056;-89
2024/01/03 07:36:27;;;;;;;22.60;3.05;;;9.00;99.90;;;;;;5081847;28;20056;-88
2024/01/03 07:38:54;;;;;;;22.48;2.88;;;8.90;99.90;;;;;;5085672;28;20040;-86
2024/01/03 07:41:21;;;;;;;15.77;2.72;;;8.80;99.90;;;;;;5082819;28;20049;-85
2024/01/03 07:43:46;;;;;;;18.65;2.72;;;9.30;99.90;;;;;;5085718;28;20041;-90
2024/01/03 07:46:15;;;;;;;18.45;2.72;;;9.70;99.90;;;;;;5087579;28;20406;-89
2024/01/03 07:48:40;;;;;;;19.80;2.95;;;8.80;99.90;;;;;;5075652;28;20132;-84
2024/01/03 07:51:06;;;;;;;18.73;2.42;;;9.00;99.90;;;;;;5085583;28;20079;-86
2024/01/03 07:53:32;;;;;;;18.77;2.53;;;8.80;99.90;;;;;;5082924;28;20048;-84
2024/01/03 07:55:58;;;;;;;15.77;2.30;;;9.80;99.90;;;;;;5084523;28;20488;-82
2024/01/03 07:58:24;;;;;;;20.05;3.00;;;9.80;99.90;;;;;;5086155;28;20040;-83
2024/01/03 08:00:50;;;;;;;18.10;2.42;;;9.90;99.90;;;;;;5084455;28;20048;-82
2024/01/03 08:03:15;;;;;;;19.02;2.35;;;9.60;99.90;;;;;;5082879;28;20048;-85
2024/01/03 08:05:44;;;;;;;20.70;2.45;;;8.70;99.90;;;;;;5083749;28;20061;-86
2024/01/03 08:08:09;;;;;;;16.30;2.15;;;8.60;99.90;;;;;;5086214;28;20078;-86
2024/01/03 08:10:35;;;;;;;16.65;2.70;;;9.20;99.90;;;;;;5084563;28;20380;-84
2024/01/03 08:13:01;;;;;;;17.38;2.40;;;8.60;99.90;;;;;;5085622;28;20036;-84
2024/01/03 08:15:26;;;;;;;17.25;1.80;;;9.60;99.90;;;;;;5082550;28;20515;-85
2024/01/03 08:17:52;;;;;;;14.63;2.63;;;8.60;99.90;;;;;;5081862;28;20075;-85
2024/01/03 08:20:18;;;;;;;9.88;1.80;;;8.60;99.90;;;;;;5084019;28;20072;-89
2024/01/03 08:22:43;;;;;;;10.05;1.73;;;8.60;99.90;;;;;;5085328;28;20379;-83
2024/01/03 08:25:10;;;;;;;10.25;1.55;;;9.40;99.90;;;;;;5083941;28;20498;-83
2024/01/03 08:27:36;;;;;;;12.68;2.60;;;9.50;99.90;;;;;;5075839;28;20078;-84
2024/01/03 08:30:02;;;;;;;11.60;1.85;;;8.50;99.90;;;;;;5083800;28;20044;-84
2024/01/03 08:32:28;;;;;;;12.85;1.95;;;8.50;99.90;;;;;;5083498;28;20043;-88
2024/01/03 08:34:53;;;;;;;10.10;1.35;;;8.90;99.90;;;;;;5082644;28;20041;-86
2024/01/03 08:37:19;;;;;;;14.82;1.92;;;8.40;99.90;;;;;;5082227;28;20048;-85
2024/01/03 08:39:45;;;;;;;16.13;1.90;;;9.50;99.90;;;;;;5081457;28;20048;-92
2024/01/03 08:42:10;;;;;;;8.68;1.25;;;8.30;99.90;;;;;;5082678;28;20080;-87
2024/01/03 08:44:36;;;;;;;16.13;1.92;;;8.60;99.90;;;;;;5082107;28;20055;-84
2024/01/03 08:47:02;;;;;;;14.65;2.35;;;9.40;99.90;;;;;;5079521;28;20055;-86
2024/01/03 08:49:27;;;;;;;11.27;1.95;;;8.30;99.90;;;;;;5078234;28;20118;-87
2024/01/03 08:51:55;;;;;;;15.60;2.40;;;9.30;99.90;;;;;;5077828;28;20044;-85
2024/01/03 08:54:22;;;;;;;11.57;2.60;;;9.40;99.90;;;;;;5079444;28;20106;-83
2024/01/03 08:56:50;;;;;;;13.68;2.70;;;7.60;99.90;;;;;;5080296;28;20048;-87
2024/01/03 08:59:15;;;;;;;20.65;2.42;;;8.90;99.90;;;;;;5063419;28;20047;-86
2024/01/03 09:01:41;;;;;;;17.80;2.90;;;8.70;99.90;;;;;;5078916;28;20065;-83
2024/01/03 09:04:07;;;;;;;14.23;2.58;;;8.40;99.90;;;;;;5082784;28;20574;-87
2024/01/03 09:06:35;;;;;;;17.95;2.40;;;9.50;99.90;;;;;;5082689;28;20457;-90
2024/01/03 09:09:01;;;;;;;19.52;2.70;;;9.40;99.90;;;;;;5083479;28;20124;-86
2024/01/03 09:11:28;;;;;;;8.82;2.45;;;8.40;99.90;;;;;;5068330;28;20044;-88
2024/01/03 09:13:56;;;;;;;15.93;2.28;;;8.50;99.90;;;;;;5083134;28;20503;-85
2024/01/03 09:16:23;;;;;;;27.52;3.78;;;9.50;99.90;;;;;;5080331;28;20052;-85
2024/01/03 09:18:49;;;;;;;14.95;2.17;;;9.30;99.90;;;;;;5062289;28;20059;-84
2024/01/03 09:21:15;;;;;;;26.08;2.70;;;9.50;99.90;;;;;;5081152;28;20083;-88
2024/01/03 09:23:41;;;;;;;27.42;2.58;;;9.20;99.90;;;;;;5075346;28;20068;-83
2024/01/03 09:26:08;;;;;;;17.65;2.78;;;8.40;99.90;;;;;;5074770;28;20080;-83
2024/01/03 09:28:37;;;;;;;14.18;2.65;;;9.50;99.90;;;;;;5061728;28;20052;-83
2024/01/03 09:31:03;;;;;;;13.52;2.28;;;8.40;99.90;;;;;;5077989;28;20052;-85
2024/01/03 09:33:29;;;;;;;23.67;2.90;;;8.50;99.90;;;;;;5080213;28;20766;-82
2024/01/03 09:35:54;;;;;;;21.00;3.42;;;9.50;99.90;;;;;;5074570;28;20051;-81
2024/01/03 09:38:20;;;;;;;16.27;2.20;;;9.30;99.90;;;;;;5070509;28;20131;-83
2024/01/03 09:40:46;;;;;;;15.60;2.72;;;9.60;99.90;;;;;;5082013;28;20493;-88
2024/01/03 09:43:12;;;;;;;11.25;1.75;;;8.90;99.90;;;;;;5079445;28;20075;-84
2024/01/03 09:45:41;;;;;;;23.58;2.97;;;9.70;99.90;;;;;;5079994;28;20087;-93
2024/01/03 09:48:09;;;;;;;18.73;2.50;;;8.60;99.90;;;;;;5078932;28;20072;-94
2024/01/03 09:50:35;;;;;;;21.00;2.88;;;8.60;99.90;;;;;;5055906;28;20055;-82
2024/01/03 09:53:02;;;;;;;20.60;2.42;;;9.00;99.90;;;;;;5081147;28;20045;-85
2024/01/03 09:55:29;;;;;;;19.67;2.15;;;8.90;99.90;;;;;;5067013;28;20067;-89
2024/01/03 09:57:55;;;;;;;10.68;2.00;;;9.40;99.90;;;;;;5081195;28;20664;-89
2024/01/03 10:00:23;;;;;;;15.23;2.38;;;9.50;99.90;;;;;;5078775;28;20086;-90
2024/01/03 10:02:49;;;;;;;14.65;2.00;;;9.40;99.90;;;;;;5081679;28;20605;-90
2024/01/03 10:05:19;;;;;;;10.48;1.60;;;8.70;99.90;;;;;;5080163;28;20120;-84
2024/01/03 10:07:45;;;;;;;16.30;2.20;;;9.60;99.90;;;;;;5081430;28;20417;-85
2024/01/03 10:10:11;;;;;;;13.45;2.15;;;8.90;99.90;;;;;;5082647;28;20048;-90
2024/01/03 10:12:37;;;;;;;11.77;1.42;;;9.40;99.90;;;;;;5065091;28;20040;-88
2024/01/03 10:15:16;;;;;;;19.17;3.10;;;9.90;99.90;;;;;;5081735;28;20044;-84
2024/01/03 10:17:46;;;;;;;11.32;1.60;;;9.90;99.90;;;;;;5087295;28;20078;-85
2024/01/03 10:20:26;;;;;;;13.15;1.48;;;9.40;99.90;;;;;;5065898;28;20052;-86
2024/01/03 10:23:13;;;;;;;15.07;1.70;;;9.90;99.90;;;;;;5082501;28;20056;-85
2024/01/03 10:25:41;;;;;;;14.88;2.15;;;9.90;99.90;;;;;;5076055;28;20055;-83
2024/01/03 10:28:09;;;;;;;11.05;1.40;;;10.50;99.90;;;;;;5072087;28;20044;-89
2024/01/03 10:30:35;;;;;;;12.07;1.92;;;10.50;99.90;;;;;;5085194;28;20055;-88
2024/01/03 10:33:08;;;;;;;13.52;1.67;;;10.60;99.90;;;;;;5079553;28;20041;-87
2024/01/03 10:35:37;;;;;;;15.82;1.80;;;10.70;99.90;;;;;;5084418;28;20032;-86
2024/01/03 10:38:03;;;;;;;10.68;1.40;;;10.50;99.90;;;;;;5084075;28;20048;-85
2024/01/03 10:40:32;;;;;;;13.43;1.83;;;9.70;99.90;;;;;;5083038;28;20095;-84
2024/01/03 10:43:03;;;;;;;14.00;2.03;;;9.60;99.90;;;;;;5084199;28;20102;-84
2024/01/03 10:45:30;;;;;;;9.48;1.52;;;9.10;99.90;;;;;;5085232;28;20127;-85
2024/01/03 10:47:57;;;;;;;17.60;2.03;;;10.00;99.90;;;;;;5074525;28;20061;-85
2024/01/03 10:50:23;;;;;;;9.77;2.30;;;9.80;99.90;;;;;;5071286;28;20091;-83
2024/01/03 10:52:53;;;;;;;13.32;2.15;;;10.40;99.90;;;;;;5085787;28;20067;-86
2024/01/03 10:55:22;;;;;;;18.58;2.17;;;10.30;99.90;;;;;;5082314;28;20107;-83
2024/01/03 10:57:58;;;;;;;13.35;1.92;;;9.40;99.90;;;;;;5084335;28;20047;-85
2024/01/03 11:00:49;;;;;;;18.85;2.40;;;9.50;99.90;;;;;;5090425;28;20074;-82
2024/01/03 11:03:39;;;;;;;14.40;2.08;;;9.50;99.90;;;;;;5060800;28;20094;-87
2024/01/03 11:06:24;;;;;;;15.07;2.58;;;9.50;99.90;;;;;;5082228;28;20058;-86
2024/01/03 11:08:54;;;;;;;18.58;1.90;;;9.50;99.90;;;;;;5081357;28;20506;-90
2024/01/03 11:11:40;;;;;;;13.95;2.45;;;9.50;99.90;;;;;;5075895;28;20033;-92
2024/01/03 11:14:18;;;;;;;15.18;2.15;;;10.10;99.90;;;;;;5080093;28;20053;-90
2024/01/03 11:16:44;;;;;;;18.80;2.95;;;10.40;99.90;;;;;;5083435;28;20088;-85
2024/01/03 11:19:11;;;;;;;19.95;2.80;;;10.10;99.90;;;;;;5064940;28;20131;-86
2024/01/03 11:21:45;;;;;;;21.70;2.53;;;10.10;99.90;;;;;;5078990;28;20383;-84
2024/01/03 11:24:20;;;;;;;16.33;2.35;;;9.40;99.90;;;;;;5084162;28;20047;-83
2024/01/03 11:26:58;;;;;;;24.05;2.85;;;10.30;99.90;;;;;;5080664;28;20040;-85
2024/01/03 11:29:41;;;;;;;18.05;2.67;;;10.10;99.90;;;;;;5082553;28;20052;-85
2024/01/03 11:32:09;;;;;;;20.42;2.83;;;8.60;99.90;;;;;;5084513;28;20542;-85
2024/01/03 11:34:46;;;;;;;21.08;3.25;;;10.10;99.90;;;;;;5081426;28;20048;-86
2024/01/03 11:37:21;;;;;;;14.27;2.20;;;9.60;99.90;;;;;;5080264;28;20048;-86
2024/01/03 11:39:51;;;;;;;19.10;2.47;;;9.30;99.90;;;;;;5078102;28;20071;-85
2024/01/03 11:42:18;;;;;;;22.23;3.03;;;9.30;99.90;;;;;;5082559;28;20040;-85
2024/01/03 11:44:44;;;;;;;20.05;3.00;;;10.20;99.90;;;;;;5073890;28;20057;-82
2024/01/03 11:47:11;;;;;;;25.90;2.78;;;10.30;99.90;;;;;;5082154;28;20056;-85
2024/01/03 11:49:37;;;;;;;23.10;3.10;;;9.80;99.90;;;;;;5078822;28;20153;-87
2024/01/03 11:52:03;;;;;;;20.08;2.45;;;9.40;99.90;;;;;;5083739;28;20509;-87
2024/01/03 11:54:32;;;;;;;18.50;3.05;;;9.50;99.90;;;;;;5076137;28;20071;-83
2024/01/03 11:56:58;;;;;;;18.92;2.70;;;9.60;99.90;;;;;;5080079;28;20059;-85
2024/01/03 11:59:25;;;;;;;17.65;3.30;;;10.20;99.90;;;;;;5068643;28;20051;-87
2024/01/03 12:01:57;;;;;;;18.75;3.40;;;10.30;99.90;;;;;;5081969;28;20055;-85
2024/01/03 12:04:27;;;;;;;24.60;3.40;;;9.50;99.90;;;;;;5078535;28;20106;-88
2024/01/03 12:06:57;;;;;;;16.92;2.40;;;9.70;99.90;;;;;;5081033;28;20056;-85
2024/01/03 12:09:29;;;;;;;19.88;2.33;;;10.10;99.90;;;;;;5058266;28;20048;-85
2024/01/03 12:11:55;;;;;;;18.38;2.83;;;9.60;99.90;;;;;;5082819;28;20907;-84
2024/01/03 12:14:21;;;;;;;26.58;3.20;;;9.70;99.90;;;;;;5080717;28;20502;-86
2024/01/03 12:16:48;;;;;;;22.17;2.90;;;10.20;99.90;;;;;;5082296;28;20040;-83
2024/01/03 12:19:28;;;;;;;24.17;3.17;;;10.30;99.90;;;;;;5080162;28;20056;-84
2024/01/03 12:22:03;;;;;;;15.68;2.20;;;10.60;99.90;;;;;;5085184;28;20443;-86
2024/01/03 12:24:41;;;;;;;;;;;9.70;99.90;;;;;;5073127;28;20043;-87
2024/01/03 12:27:08;;;;;;;19.15;2.88;;;9.60;99.90;;;;;;5076186;28;20011;-88
2024/01/03 12:29:35;;;;;;;16.75;1.83;;;10.60;99.90;;;;;;5058801;28;20235;-85
2024/01/03 12:32:10;;;;;;;16.52;2.60;;;10.20;99.90;;;;;;5081165;28;20564;-86
2024/01/03 12:34:36;;;;;;;19.23;2.78;;;9.60;99.90;;;;;;5078832;28;20054;-86
2024/01/03 12:37:15;;;;;;;17.30;2.53;;;9.90;99.90;;;;;;5059600;28;20065;-88
2024/01/03 12:39:48;;;;;;;19.05;3.00;;;9.50;99.90;;;;;;5080835;28;20446;-88
2024/01/03 12:42:18;;;;;;;21.20;3.55;;;9.60;99.90;;;;;;5064441;28;20044;-87
2024/01/03 12:44:50;;;;;;;20.50;2.58;;;9.50;99.90;;;;;;5078353;28;20055;-87
2024/01/03 12:47:24;;;;;;;16.08;2.10;;;9.80;99.90;;;;;;5055522;28;20125;-91
2024/01/03 12:49:51;;;;;;;24.02;2.50;;;9.60;99.90;;;;;;5062741;28;20057;-87